sensor_id;sensor_type;location;lat;lon;timestamp;temperature;humidity
69225;DHT22;56333;51.306;17.056;2024-02-26T00:01:01;5.12;75.65
69225;DHT22;56333;51.306;17.056;2024-02-26T00:02:37;5.13;75.70
69225;DHT22;56333;51.306;17.056;2024-02-26T00:04:06;5.15;75.80
69225;DHT22;56333;51.306;17.056;2024-02-26T00:05:35;5.14;75.80
69225;DHT22;56333;51.306;17.056;2024-02-26T00:07:03;5.15;75.75
69225;DHT22;56333;51.306;17.056;2024-02-26T00:08:33;5.10;75.63
69225;DHT22;56333;51.306;17.056;2024-02-26T00:10:01;5.10;75.70
69225;DHT22;56333;51.306;17.056;2024-02-26T00:11:30;5.07;75.80
69225;DHT22;56333;51.306;17.056;2024-02-26T00:12:58;5.09;75.88
69225;DHT22;56333;51.306;17.056;2024-02-26T00:14:27;5.10;75.78
69225;DHT22;56333;51.306;17.056;2024-02-26T00:15:56;5.09;75.60
69225;DHT22;56333;51.306;17.056;2024-02-26T00:17:24;5.10;75.53
69225;DHT22;56333;51.306;17.056;2024-02-26T00:18:53;5.11;75.43
69225;DHT22;56333;51.306;17.056;2024-02-26T00:20:21;5.08;75.30
69225;DHT22;56333;51.306;17.056;2024-02-26T00:21:50;5.07;75.32
69225;DHT22;56333;51.306;17.056;2024-02-26T00:23:19;5.05;75.47
69225;DHT22;56333;51.306;17.056;2024-02-26T00:24:47;5.05;75.53
69225;DHT22;56333;51.306;17.056;2024-02-26T00:26:16;5.07;75.63
69225;DHT22;56333;51.306;17.056;2024-02-26T00:27:44;5.06;75.68
69225;DHT22;56333;51.306;17.056;2024-02-26T00:29:14;5.07;75.80
69225;DHT22;56333;51.306;17.056;2024-02-26T00:30:43;5.06;75.80
69225;DHT22;56333;51.306;17.056;2024-02-26T00:32:11;5.07;75.90
69225;DHT22;56333;51.306;17.056;2024-02-26T00:33:40;5.04;75.85
69225;DHT22;56333;51.306;17.056;2024-02-26T00:35:09;5.03;75.85
69225;DHT22;56333;51.306;17.056;2024-02-26T00:36:38;4.99;75.82
69225;DHT22;56333;51.306;17.056;2024-02-26T00:38:07;4.97;75.80
69225;DHT22;56333;51.306;17.056;2024-02-26T00:39:36;4.95;75.70
69225;DHT22;56333;51.306;17.056;2024-02-26T00:41:04;4.94;75.70
69225;DHT22;56333;51.306;17.056;2024-02-26T00:42:33;4.91;75.70
69225;DHT22;56333;51.306;17.056;2024-02-26T00:44:01;4.88;75.60
69225;DHT22;56333;51.306;17.056;2024-02-26T00:45:30;4.84;75.53
69225;DHT22;56333;51.306;17.056;2024-02-26T00:46:58;4.81;75.63
69225;DHT22;56333;51.306;17.056;2024-02-26T00:48:27;4.78;75.80
69225;DHT22;56333;51.306;17.056;2024-02-26T00:49:55;4.76;75.90
69225;DHT22;56333;51.306;17.056;2024-02-26T00:51:24;4.74;76.00
69225;DHT22;56333;51.306;17.056;2024-02-26T00:52:52;4.74;76.05
69225;DHT22;56333;51.306;17.056;2024-02-26T00:54:21;4.72;76.10
69225;DHT22;56333;51.306;17.056;2024-02-26T00:55:49;4.72;76.10
69225;DHT22;56333;51.306;17.056;2024-02-26T00:57:17;4.70;76.03
69225;DHT22;56333;51.306;17.056;2024-02-26T00:58:46;4.69;75.97
69225;DHT22;56333;51.306;17.056;2024-02-26T01:00:16;4.66;75.88
69225;DHT22;56333;51.306;17.056;2024-02-26T01:01:45;4.63;75.80
69225;DHT22;56333;51.306;17.056;2024-02-26T01:03:14;4.59;75.72
69225;DHT22;56333;51.306;17.056;2024-02-26T01:04:44;4.52;75.80
69225;DHT22;56333;51.306;17.056;2024-02-26T01:06:12;4.46;75.68
69225;DHT22;56333;51.306;17.056;2024-02-26T01:07:41;4.43;75.85
69225;DHT22;56333;51.306;17.056;2024-02-26T01:09:09;4.40;76.00
69225;DHT22;56333;51.306;17.056;2024-02-26T01:10:39;4.38;76.13
69225;DHT22;56333;51.306;17.056;2024-02-26T01:12:08;4.36;76.25
69225;DHT22;56333;51.306;17.056;2024-02-26T01:13:36;4.32;76.32
69225;DHT22;56333;51.306;17.056;2024-02-26T01:15:06;4.28;76.30
69225;DHT22;56333;51.306;17.056;2024-02-26T01:16:35;4.25;76.35
69225;DHT22;56333;51.306;17.056;2024-02-26T01:18:04;4.25;76.63
69225;DHT22;56333;51.306;17.056;2024-02-26T01:19:32;4.23;76.72
69225;DHT22;56333;51.306;17.056;2024-02-26T01:21:01;4.23;76.70
69225;DHT22;56333;51.306;17.056;2024-02-26T01:22:33;4.16;76.68
69225;DHT22;56333;51.306;17.056;2024-02-26T01:24:01;4.13;76.57
69225;DHT22;56333;51.306;17.056;2024-02-26T01:25:30;4.10;76.68
69225;DHT22;56333;51.306;17.056;2024-02-26T01:26:59;4.07;76.53
69225;DHT22;56333;51.306;17.056;2024-02-26T01:28:27;4.04;76.60
69225;DHT22;56333;51.306;17.056;2024-02-26T01:29:56;4.01;76.57
69225;DHT22;56333;51.306;17.056;2024-02-26T01:31:24;3.96;76.65
69225;DHT22;56333;51.306;17.056;2024-02-26T01:32:53;3.95;76.90
69225;DHT22;56333;51.306;17.056;2024-02-26T01:34:21;3.93;77.13
69225;DHT22;56333;51.306;17.056;2024-02-26T01:35:50;3.92;77.30
69225;DHT22;56333;51.306;17.056;2024-02-26T01:37:18;3.90;77.20
69225;DHT22;56333;51.306;17.056;2024-02-26T01:38:47;3.88;77.22
69225;DHT22;56333;51.306;17.056;2024-02-26T01:40:15;3.90;77.57
69225;DHT22;56333;51.306;17.056;2024-02-26T01:41:44;3.92;77.75
69225;DHT22;56333;51.306;17.056;2024-02-26T01:43:12;3.93;77.80
69225;DHT22;56333;51.306;17.056;2024-02-26T01:44:41;3.90;77.75
69225;DHT22;56333;51.306;17.056;2024-02-26T01:46:10;3.92;77.97
69225;DHT22;56333;51.306;17.056;2024-02-26T01:47:41;3.95;78.10
69225;DHT22;56333;51.306;17.056;2024-02-26T01:49:11;3.96;78.15
69225;DHT22;56333;51.306;17.056;2024-02-26T01:50:39;3.96;78.18
69225;DHT22;56333;51.306;17.056;2024-02-26T01:52:09;3.96;78.07
69225;DHT22;56333;51.306;17.056;2024-02-26T01:53:38;3.92;78.00
69225;DHT22;56333;51.306;17.056;2024-02-26T01:55:08;3.90;77.93
69225;DHT22;56333;51.306;17.056;2024-02-26T01:56:38;3.90;78.03
69225;DHT22;56333;51.306;17.056;2024-02-26T01:58:07;3.85;78.00
69225;DHT22;56333;51.306;17.056;2024-02-26T01:59:37;3.83;77.90
69225;DHT22;56333;51.306;17.056;2024-02-26T02:01:06;3.81;77.90
69225;DHT22;56333;51.306;17.056;2024-02-26T02:02:35;3.84;78.13
69225;DHT22;56333;51.306;17.056;2024-02-26T02:04:06;3.85;78.25
69225;DHT22;56333;51.306;17.056;2024-02-26T02:05:34;3.84;78.18
69225;DHT22;56333;51.306;17.056;2024-02-26T02:07:06;3.87;78.43
69225;DHT22;56333;51.306;17.056;2024-02-26T02:08:34;3.91;78.57
69225;DHT22;56333;51.306;17.056;2024-02-26T02:10:05;3.93;78.72
69225;DHT22;56333;51.306;17.056;2024-02-26T02:11:35;3.97;78.80
69225;DHT22;56333;51.306;17.056;2024-02-26T02:13:02;3.99;78.60
69225;DHT22;56333;51.306;17.056;2024-02-26T02:14:31;4.01;78.75
69225;DHT22;56333;51.306;17.056;2024-02-26T02:16:00;4.03;78.60
69225;DHT22;56333;51.306;17.056;2024-02-26T02:17:30;4.04;78.60
69225;DHT22;56333;51.306;17.056;2024-02-26T02:18:59;4.07;78.63
69225;DHT22;56333;51.306;17.056;2024-02-26T02:20:31;4.13;78.85
69225;DHT22;56333;51.306;17.056;2024-02-26T02:22:00;4.16;78.90
69225;DHT22;56333;51.306;17.056;2024-02-26T02:23:28;4.22;78.93
69225;DHT22;56333;51.306;17.056;2024-02-26T02:24:57;4.24;78.88
69225;DHT22;56333;51.306;17.056;2024-02-26T02:26:25;4.23;78.70
69225;DHT22;56333;51.306;17.056;2024-02-26T02:27:54;4.22;78.60
69225;DHT22;56333;51.306;17.056;2024-02-26T02:29:23;4.24;78.70
69225;DHT22;56333;51.306;17.056;2024-02-26T02:30:52;4.24;78.80
69225;DHT22;56333;51.306;17.056;2024-02-26T02:32:21;4.23;78.68
69225;DHT22;56333;51.306;17.056;2024-02-26T02:33:51;4.26;78.80
69225;DHT22;56333;51.306;17.056;2024-02-26T02:35:20;4.28;78.88
69225;DHT22;56333;51.306;17.056;2024-02-26T02:36:52;4.28;78.78
69225;DHT22;56333;51.306;17.056;2024-02-26T02:38:21;4.32;78.93
69225;DHT22;56333;51.306;17.056;2024-02-26T02:39:49;4.37;79.10
69225;DHT22;56333;51.306;17.056;2024-02-26T02:41:19;4.39;79.15
69225;DHT22;56333;51.306;17.056;2024-02-26T02:42:47;4.44;79.32
69225;DHT22;56333;51.306;17.056;2024-02-26T02:44:15;4.51;79.43
69225;DHT22;56333;51.306;17.056;2024-02-26T02:45:44;4.55;79.53
69225;DHT22;56333;51.306;17.056;2024-02-26T02:47:12;4.60;79.65
69225;DHT22;56333;51.306;17.056;2024-02-26T02:48:42;4.68;79.75
69225;DHT22;56333;51.306;17.056;2024-02-26T02:50:11;4.73;79.78
69225;DHT22;56333;51.306;17.056;2024-02-26T02:51:39;4.76;79.80
69225;DHT22;56333;51.306;17.056;2024-02-26T02:53:08;4.80;79.78
69225;DHT22;56333;51.306;17.056;2024-02-26T02:54:37;4.85;79.85
69225;DHT22;56333;51.306;17.056;2024-02-26T02:56:07;4.89;79.85
69225;DHT22;56333;51.306;17.056;2024-02-26T02:57:36;4.95;79.85
69225;DHT22;56333;51.306;17.056;2024-02-26T02:59:05;4.99;79.85
69225;DHT22;56333;51.306;17.056;2024-02-26T03:00:33;5.03;79.85
69225;DHT22;56333;51.306;17.056;2024-02-26T03:02:02;5.09;79.88
69225;DHT22;56333;51.306;17.056;2024-02-26T03:03:31;5.13;79.90
69225;DHT22;56333;51.306;17.056;2024-02-26T03:05:01;5.16;79.85
69225;DHT22;56333;51.306;17.056;2024-02-26T03:06:31;5.20;79.90
69225;DHT22;56333;51.306;17.056;2024-02-26T03:07:59;5.24;79.93
69225;DHT22;56333;51.306;17.056;2024-02-26T03:09:28;5.28;79.93
69225;DHT22;56333;51.306;17.056;2024-02-26T03:10:59;5.33;79.90
69225;DHT22;56333;51.306;17.056;2024-02-26T03:12:29;5.38;79.80
69225;DHT22;56333;51.306;17.056;2024-02-26T03:13:58;5.41;79.60
69225;DHT22;56333;51.306;17.056;2024-02-26T03:15:27;5.43;79.50
69225;DHT22;56333;51.306;17.056;2024-02-26T03:16:57;5.45;79.35
69225;DHT22;56333;51.306;17.056;2024-02-26T03:18:25;5.45;79.30
69225;DHT22;56333;51.306;17.056;2024-02-26T03:19:54;5.48;79.20
69225;DHT22;56333;51.306;17.056;2024-02-26T03:21:23;5.46;79.22
69225;DHT22;56333;51.306;17.056;2024-02-26T03:22:52;5.49;79.32
69225;DHT22;56333;51.306;17.056;2024-02-26T03:24:20;5.53;79.40
69225;DHT22;56333;51.306;17.056;2024-02-26T03:25:49;5.55;79.53
69225;DHT22;56333;51.306;17.056;2024-02-26T03:27:17;5.60;79.53
69225;DHT22;56333;51.306;17.056;2024-02-26T03:28:45;5.63;79.43
69225;DHT22;56333;51.306;17.056;2024-02-26T03:30:15;5.63;79.35
69225;DHT22;56333;51.306;17.056;2024-02-26T03:31:44;5.65;79.38
69225;DHT22;56333;51.306;17.056;2024-02-26T03:33:12;5.70;79.35
69225;DHT22;56333;51.306;17.056;2024-02-26T03:34:40;5.72;79.40
69225;DHT22;56333;51.306;17.056;2024-02-26T03:36:09;5.73;79.30
69225;DHT22;56333;51.306;17.056;2024-02-26T03:37:37;5.78;79.43
69225;DHT22;56333;51.306;17.056;2024-02-26T03:39:06;5.82;79.40
69225;DHT22;56333;51.306;17.056;2024-02-26T03:40:35;5.86;79.40
69225;DHT22;56333;51.306;17.056;2024-02-26T03:42:03;5.87;79.32
69225;DHT22;56333;51.306;17.056;2024-02-26T03:43:32;5.91;79.13
69225;DHT22;56333;51.306;17.056;2024-02-26T03:45:01;5.93;79.03
69225;DHT22;56333;51.306;17.056;2024-02-26T03:46:31;5.95;79.00
69225;DHT22;56333;51.306;17.056;2024-02-26T03:48:00;5.96;79.03
69225;DHT22;56333;51.306;17.056;2024-02-26T03:49:28;5.95;78.97
69225;DHT22;56333;51.306;17.056;2024-02-26T03:50:57;5.95;79.07
69225;DHT22;56333;51.306;17.056;2024-02-26T03:52:25;5.95;79.20
69225;DHT22;56333;51.306;17.056;2024-02-26T03:53:54;5.97;79.30
69225;DHT22;56333;51.306;17.056;2024-02-26T03:55:23;6.01;79.28
69225;DHT22;56333;51.306;17.056;2024-02-26T03:56:51;6.02;79.22
69225;DHT22;56333;51.306;17.056;2024-02-26T03:58:20;6.03;79.43
69225;DHT22;56333;51.306;17.056;2024-02-26T03:59:49;6.05;79.32
69225;DHT22;56333;51.306;17.056;2024-02-26T04:01:19;6.06;79.30
69225;DHT22;56333;51.306;17.056;2024-02-26T04:02:47;6.09;79.30
69225;DHT22;56333;51.306;17.056;2024-02-26T04:04:16;6.11;79.32
69225;DHT22;56333;51.306;17.056;2024-02-26T04:05:45;6.11;79.28
69225;DHT22;56333;51.306;17.056;2024-02-26T04:07:14;6.13;79.22
69225;DHT22;56333;51.306;17.056;2024-02-26T04:08:42;6.14;79.22
69225;DHT22;56333;51.306;17.056;2024-02-26T04:10:11;6.15;79.22
69225;DHT22;56333;51.306;17.056;2024-02-26T04:11:40;6.18;79.15
69225;DHT22;56333;51.306;17.056;2024-02-26T04:13:09;6.20;79.10
69225;DHT22;56333;51.306;17.056;2024-02-26T04:14:38;6.22;79.10
69225;DHT22;56333;51.306;17.056;2024-02-26T04:16:07;6.24;79.03
69225;DHT22;56333;51.306;17.056;2024-02-26T04:17:36;6.27;79.00
69225;DHT22;56333;51.306;17.056;2024-02-26T04:19:06;6.30;78.93
69225;DHT22;56333;51.306;17.056;2024-02-26T04:20:34;6.32;78.85
69225;DHT22;56333;51.306;17.056;2024-02-26T04:22:03;6.34;78.80
69225;DHT22;56333;51.306;17.056;2024-02-26T04:23:32;6.36;78.78
69225;DHT22;56333;51.306;17.056;2024-02-26T04:25:01;6.36;78.68
69225;DHT22;56333;51.306;17.056;2024-02-26T04:26:31;6.36;78.50
69225;DHT22;56333;51.306;17.056;2024-02-26T04:27:59;6.36;78.40
69225;DHT22;56333;51.306;17.056;2024-02-26T04:29:29;6.36;78.35
69225;DHT22;56333;51.306;17.056;2024-02-26T04:30:57;6.36;78.40
69225;DHT22;56333;51.306;17.056;2024-02-26T04:32:26;6.36;78.32
69225;DHT22;56333;51.306;17.056;2024-02-26T04:33:55;6.37;78.32
69225;DHT22;56333;51.306;17.056;2024-02-26T04:35:23;6.39;78.30
69225;DHT22;56333;51.306;17.056;2024-02-26T04:36:52;6.40;78.30
69225;DHT22;56333;51.306;17.056;2024-02-26T04:38:20;6.43;78.32
69225;DHT22;56333;51.306;17.056;2024-02-26T04:39:49;6.42;78.35
69225;DHT22;56333;51.306;17.056;2024-02-26T04:41:17;6.43;78.30
69225;DHT22;56333;51.306;17.056;2024-02-26T04:42:46;6.43;78.32
69225;DHT22;56333;51.306;17.056;2024-02-26T04:44:14;6.45;78.35
69225;DHT22;56333;51.306;17.056;2024-02-26T04:45:43;6.45;78.35
69225;DHT22;56333;51.306;17.056;2024-02-26T04:47:12;6.46;78.30
69225;DHT22;56333;51.306;17.056;2024-02-26T04:48:40;6.46;78.32
69225;DHT22;56333;51.306;17.056;2024-02-26T04:50:11;6.47;78.32
69225;DHT22;56333;51.306;17.056;2024-02-26T04:51:41;6.49;78.28
69225;DHT22;56333;51.306;17.056;2024-02-26T04:53:09;6.48;78.25
69225;DHT22;56333;51.306;17.056;2024-02-26T04:54:37;6.49;78.30
69225;DHT22;56333;51.306;17.056;2024-02-26T04:56:07;6.49;78.30
69225;DHT22;56333;51.306;17.056;2024-02-26T04:57:35;6.51;78.20
69225;DHT22;56333;51.306;17.056;2024-02-26T04:59:04;6.50;78.10
69225;DHT22;56333;51.306;17.056;2024-02-26T05:00:32;6.47;78.00
69225;DHT22;56333;51.306;17.056;2024-02-26T05:02:01;6.47;78.00
69225;DHT22;56333;51.306;17.056;2024-02-26T05:03:30;6.46;78.05
69225;DHT22;56333;51.306;17.056;2024-02-26T05:04:59;6.45;78.10
69225;DHT22;56333;51.306;17.056;2024-02-26T05:06:28;6.44;78.13
69225;DHT22;56333;51.306;17.056;2024-02-26T05:07:56;6.43;78.20
69225;DHT22;56333;51.306;17.056;2024-02-26T05:09:27;6.39;78.38
69225;DHT22;56333;51.306;17.056;2024-02-26T05:10:57;6.40;78.38
69225;DHT22;56333;51.306;17.056;2024-02-26T05:12:26;6.41;78.43
69225;DHT22;56333;51.306;17.056;2024-02-26T05:13:55;6.40;78.43
69225;DHT22;56333;51.306;17.056;2024-02-26T05:15:24;6.39;78.50
69225;DHT22;56333;51.306;17.056;2024-02-26T05:16:52;6.38;78.63
69225;DHT22;56333;51.306;17.056;2024-02-26T05:18:21;6.38;78.57
69225;DHT22;56333;51.306;17.056;2024-02-26T05:19:51;6.41;78.57
69225;DHT22;56333;51.306;17.056;2024-02-26T05:21:20;6.39;78.60
69225;DHT22;56333;51.306;17.056;2024-02-26T05:22:49;6.43;78.50
69225;DHT22;56333;51.306;17.056;2024-02-26T05:24:17;6.42;78.55
69225;DHT22;56333;51.306;17.056;2024-02-26T05:25:48;6.44;78.50
69225;DHT22;56333;51.306;17.056;2024-02-26T05:27:16;6.44;78.50
69225;DHT22;56333;51.306;17.056;2024-02-26T05:28:44;6.46;78.50
69225;DHT22;56333;51.306;17.056;2024-02-26T05:30:14;6.45;78.47
69225;DHT22;56333;51.306;17.056;2024-02-26T05:31:44;6.50;78.45
69225;DHT22;56333;51.306;17.056;2024-02-26T05:33:13;6.50;78.40
69225;DHT22;56333;51.306;17.056;2024-02-26T05:34:41;6.50;78.43
69225;DHT22;56333;51.306;17.056;2024-02-26T05:36:10;6.51;78.38
69225;DHT22;56333;51.306;17.056;2024-02-26T05:37:46;6.51;78.30
69225;DHT22;56333;51.306;17.056;2024-02-26T05:39:15;6.51;78.18
69225;DHT22;56333;51.306;17.056;2024-02-26T05:40:44;6.49;78.07
69225;DHT22;56333;51.306;17.056;2024-02-26T05:42:12;6.47;78.07
69225;DHT22;56333;51.306;17.056;2024-02-26T05:43:40;6.46;78.18
69225;DHT22;56333;51.306;17.056;2024-02-26T05:45:10;6.47;78.20
69225;DHT22;56333;51.306;17.056;2024-02-26T05:46:39;6.48;78.35
69225;DHT22;56333;51.306;17.056;2024-02-26T05:48:08;6.50;78.45
69225;DHT22;56333;51.306;17.056;2024-02-26T05:49:36;6.51;78.38
69225;DHT22;56333;51.306;17.056;2024-02-26T05:51:05;6.54;78.32
69225;DHT22;56333;51.306;17.056;2024-02-26T05:52:34;6.57;78.30
69225;DHT22;56333;51.306;17.056;2024-02-26T05:54:03;6.61;78.30
69225;DHT22;56333;51.306;17.056;2024-02-26T05:55:33;6.63;78.30
69225;DHT22;56333;51.306;17.056;2024-02-26T05:57:02;6.64;78.30
69225;DHT22;56333;51.306;17.056;2024-02-26T05:58:31;6.66;78.22
69225;DHT22;56333;51.306;17.056;2024-02-26T06:00:00;6.68;78.20
69225;DHT22;56333;51.306;17.056;2024-02-26T06:01:36;6.71;78.18
69225;DHT22;56333;51.306;17.056;2024-02-26T06:03:05;6.74;78.15
69225;DHT22;56333;51.306;17.056;2024-02-26T06:04:34;6.76;78.10
69225;DHT22;56333;51.306;17.056;2024-02-26T06:06:03;6.76;78.10
69225;DHT22;56333;51.306;17.056;2024-02-26T06:07:32;6.77;78.07
69225;DHT22;56333;51.306;17.056;2024-02-26T06:09:01;6.79;78.05
69225;DHT22;56333;51.306;17.056;2024-02-26T06:10:30;6.80;78.00
69225;DHT22;56333;51.306;17.056;2024-02-26T06:11:58;6.82;78.00
69225;DHT22;56333;51.306;17.056;2024-02-26T06:13:27;6.84;77.88
69225;DHT22;56333;51.306;17.056;2024-02-26T06:14:56;6.84;77.82
69225;DHT22;56333;51.306;17.056;2024-02-26T06:16:25;6.82;77.80
69225;DHT22;56333;51.306;17.056;2024-02-26T06:17:53;6.83;77.78
69225;DHT22;56333;51.306;17.056;2024-02-26T06:19:22;6.83;77.80
69225;DHT22;56333;51.306;17.056;2024-02-26T06:20:50;6.84;77.80
69225;DHT22;56333;51.306;17.056;2024-02-26T06:22:19;6.84;77.80
69225;DHT22;56333;51.306;17.056;2024-02-26T06:23:47;6.84;77.88
69225;DHT22;56333;51.306;17.056;2024-02-26T06:25:16;6.86;77.88
69225;DHT22;56333;51.306;17.056;2024-02-26T06:26:44;6.86;77.93
69225;DHT22;56333;51.306;17.056;2024-02-26T06:28:13;6.87;77.88
69225;DHT22;56333;51.306;17.056;2024-02-26T06:29:41;6.88;77.90
69225;DHT22;56333;51.306;17.056;2024-02-26T06:31:09;6.87;77.95
69225;DHT22;56333;51.306;17.056;2024-02-26T06:32:38;6.88;77.90
69225;DHT22;56333;51.306;17.056;2024-02-26T06:34:07;6.89;77.95
69225;DHT22;56333;51.306;17.056;2024-02-26T06:35:35;6.90;77.95
69225;DHT22;56333;51.306;17.056;2024-02-26T06:37:05;6.90;77.97
69225;DHT22;56333;51.306;17.056;2024-02-26T06:38:34;6.91;78.00
69225;DHT22;56333;51.306;17.056;2024-02-26T06:40:03;6.92;78.00
69225;DHT22;56333;51.306;17.056;2024-02-26T06:41:33;6.91;78.00
69225;DHT22;56333;51.306;17.056;2024-02-26T06:43:03;6.92;78.00
69225;DHT22;56333;51.306;17.056;2024-02-26T06:44:33;6.93;78.00
69225;DHT22;56333;51.306;17.056;2024-02-26T06:46:02;6.95;78.03
69225;DHT22;56333;51.306;17.056;2024-02-26T06:47:31;6.93;78.05
69225;DHT22;56333;51.306;17.056;2024-02-26T06:49:01;6.94;78.18
69225;DHT22;56333;51.306;17.056;2024-02-26T06:50:30;6.94;78.15
69225;DHT22;56333;51.306;17.056;2024-02-26T06:51:58;6.95;78.10
69225;DHT22;56333;51.306;17.056;2024-02-26T06:53:27;6.95;78.20
69225;DHT22;56333;51.306;17.056;2024-02-26T06:54:55;6.95;78.13
69225;DHT22;56333;51.306;17.056;2024-02-26T06:56:24;6.96;78.18
69225;DHT22;56333;51.306;17.056;2024-02-26T06:57:52;6.98;78.15
69225;DHT22;56333;51.306;17.056;2024-02-26T06:59:21;7.01;78.18
69225;DHT22;56333;51.306;17.056;2024-02-26T07:00:50;7.01;78.20
69225;DHT22;56333;51.306;17.056;2024-02-26T07:02:18;7.02;78.20
69225;DHT22;56333;51.306;17.056;2024-02-26T07:03:47;7.01;78.20
69225;DHT22;56333;51.306;17.056;2024-02-26T07:05:15;7.03;78.15
69225;DHT22;56333;51.306;17.056;2024-02-26T07:06:44;7.03;78.25
69225;DHT22;56333;51.306;17.056;2024-02-26T07:08:12;7.03;78.30
69225;DHT22;56333;51.306;17.056;2024-02-26T07:09:43;7.04;78.30
69225;DHT22;56333;51.306;17.056;2024-02-26T07:11:12;7.06;78.20
69225;DHT22;56333;51.306;17.056;2024-02-26T07:12:40;7.07;78.22
69225;DHT22;56333;51.306;17.056;2024-02-26T07:14:09;7.09;78.28
69225;DHT22;56333;51.306;17.056;2024-02-26T07:15:39;7.09;78.38
69225;DHT22;56333;51.306;17.056;2024-02-26T07:17:07;7.14;78.35
69225;DHT22;56333;51.306;17.056;2024-02-26T07:18:36;7.15;78.35
69225;DHT22;56333;51.306;17.056;2024-02-26T07:20:07;7.17;78.30
69225;DHT22;56333;51.306;17.056;2024-02-26T07:21:37;7.20;78.20
69225;DHT22;56333;51.306;17.056;2024-02-26T07:23:05;7.24;78.10
69225;DHT22;56333;51.306;17.056;2024-02-26T07:24:34;7.25;78.18
69225;DHT22;56333;51.306;17.056;2024-02-26T07:26:03;7.28;78.13
69225;DHT22;56333;51.306;17.056;2024-02-26T07:27:32;7.30;78.10
69225;DHT22;56333;51.306;17.056;2024-02-26T07:29:01;7.34;77.97
69225;DHT22;56333;51.306;17.056;2024-02-26T07:30:30;7.34;77.93
69225;DHT22;56333;51.306;17.056;2024-02-26T07:31:59;7.36;77.97
69225;DHT22;56333;51.306;17.056;2024-02-26T07:33:28;7.37;77.90
69225;DHT22;56333;51.306;17.056;2024-02-26T07:34:58;7.39;77.90
69225;DHT22;56333;51.306;17.056;2024-02-26T07:36:27;7.42;77.90
69225;DHT22;56333;51.306;17.056;2024-02-26T07:37:55;7.46;77.90
69225;DHT22;56333;51.306;17.056;2024-02-26T07:39:24;7.49;77.90
69225;DHT22;56333;51.306;17.056;2024-02-26T07:40:53;7.52;77.90
69225;DHT22;56333;51.306;17.056;2024-02-26T07:42:22;7.57;77.90
69225;DHT22;56333;51.306;17.056;2024-02-26T07:43:50;7.61;77.78
69225;DHT22;56333;51.306;17.056;2024-02-26T07:45:19;7.63;77.70
69225;DHT22;56333;51.306;17.056;2024-02-26T07:46:47;7.68;77.70
69225;DHT22;56333;51.306;17.056;2024-02-26T07:48:16;7.73;77.68
69225;DHT22;56333;51.306;17.056;2024-02-26T07:49:44;7.78;77.55
69225;DHT22;56333;51.306;17.056;2024-02-26T07:51:14;7.84;77.50
69225;DHT22;56333;51.306;17.056;2024-02-26T07:52:43;7.87;77.35
69225;DHT22;56333;51.306;17.056;2024-02-26T07:54:12;7.91;77.07
69225;DHT22;56333;51.306;17.056;2024-02-26T07:55:44;7.93;76.93
69225;DHT22;56333;51.306;17.056;2024-02-26T07:57:13;7.97;76.70
69225;DHT22;56333;51.306;17.056;2024-02-26T07:58:41;7.97;76.38
69225;DHT22;56333;51.306;17.056;2024-02-26T08:00:11;8.02;76.53
69225;DHT22;56333;51.306;17.056;2024-02-26T08:01:41;8.03;76.53
69225;DHT22;56333;51.306;17.056;2024-02-26T08:03:14;8.07;76.53
69225;DHT22;56333;51.306;17.056;2024-02-26T08:04:42;8.11;76.32
69225;DHT22;56333;51.306;17.056;2024-02-26T08:06:10;8.15;76.22
69225;DHT22;56333;51.306;17.056;2024-02-26T08:07:39;8.20;76.15
69225;DHT22;56333;51.306;17.056;2024-02-26T08:09:07;8.23;76.00
69225;DHT22;56333;51.306;17.056;2024-02-26T08:10:36;8.28;76.03
69225;DHT22;56333;51.306;17.056;2024-02-26T08:12:06;8.35;76.00
69225;DHT22;56333;51.306;17.056;2024-02-26T08:13:35;8.41;75.78
69225;DHT22;56333;51.306;17.056;2024-02-26T08:15:06;8.49;75.55
69225;DHT22;56333;51.306;17.056;2024-02-26T08:16:35;8.54;75.40
69225;DHT22;56333;51.306;17.056;2024-02-26T08:18:05;8.59;75.15
69225;DHT22;56333;51.306;17.056;2024-02-26T08:19:33;8.59;74.97
69225;DHT22;56333;51.306;17.056;2024-02-26T08:21:02;8.63;74.90
69225;DHT22;56333;51.306;17.056;2024-02-26T08:22:32;8.66;75.03
69225;DHT22;56333;51.306;17.056;2024-02-26T08:24:03;8.69;75.00
69225;DHT22;56333;51.306;17.056;2024-02-26T08:25:32;8.74;74.95
69225;DHT22;56333;51.306;17.056;2024-02-26T08:27:01;8.78;74.55
69225;DHT22;56333;51.306;17.056;2024-02-26T08:28:30;8.82;74.60
69225;DHT22;56333;51.306;17.056;2024-02-26T08:29:58;8.86;74.55
69225;DHT22;56333;51.306;17.056;2024-02-26T08:31:27;8.87;73.75
69225;DHT22;56333;51.306;17.056;2024-02-26T08:32:55;8.88;73.97
69225;DHT22;56333;51.306;17.056;2024-02-26T08:34:24;8.90;74.05
69225;DHT22;56333;51.306;17.056;2024-02-26T08:35:52;8.93;73.95
69225;DHT22;56333;51.306;17.056;2024-02-26T08:37:21;8.97;73.88
69225;DHT22;56333;51.306;17.056;2024-02-26T08:38:49;9.00;73.90
69225;DHT22;56333;51.306;17.056;2024-02-26T08:40:18;9.05;73.82
69225;DHT22;56333;51.306;17.056;2024-02-26T08:41:46;9.09;73.80
69225;DHT22;56333;51.306;17.056;2024-02-26T08:43:15;9.14;73.88
69225;DHT22;56333;51.306;17.056;2024-02-26T08:44:44;9.19;73.82
69225;DHT22;56333;51.306;17.056;2024-02-26T08:46:13;9.24;73.70
69225;DHT22;56333;51.306;17.056;2024-02-26T08:47:41;9.30;73.50
69225;DHT22;56333;51.306;17.056;2024-02-26T08:49:12;9.33;73.45
69225;DHT22;56333;51.306;17.056;2024-02-26T08:50:41;9.36;73.38
69225;DHT22;56333;51.306;17.056;2024-02-26T08:52:09;9.39;73.35
69225;DHT22;56333;51.306;17.056;2024-02-26T08:53:39;9.44;73.30
69225;DHT22;56333;51.306;17.056;2024-02-26T08:55:09;9.50;73.28
69225;DHT22;56333;51.306;17.056;2024-02-26T08:56:37;9.53;73.28
69225;DHT22;56333;51.306;17.056;2024-02-26T08:58:06;9.59;72.93
69225;DHT22;56333;51.306;17.056;2024-02-26T08:59:35;9.64;73.00
69225;DHT22;56333;51.306;17.056;2024-02-26T09:01:04;9.68;72.85
69225;DHT22;56333;51.306;17.056;2024-02-26T09:02:32;9.73;72.82
69225;DHT22;56333;51.306;17.056;2024-02-26T09:04:02;9.77;72.85
69225;DHT22;56333;51.306;17.056;2024-02-26T09:05:31;9.80;72.75
69225;DHT22;56333;51.306;17.056;2024-02-26T09:06:59;9.84;72.68
69225;DHT22;56333;51.306;17.056;2024-02-26T09:08:29;9.90;72.63
69225;DHT22;56333;51.306;17.056;2024-02-26T09:10:00;9.95;72.22
69225;DHT22;56333;51.306;17.056;2024-02-26T09:11:29;10.00;72.00
69225;DHT22;56333;51.306;17.056;2024-02-26T09:12:58;10.06;72.22
69225;DHT22;56333;51.306;17.056;2024-02-26T09:14:26;10.10;71.55
69225;DHT22;56333;51.306;17.056;2024-02-26T09:15:55;10.18;71.57
69225;DHT22;56333;51.306;17.056;2024-02-26T09:17:24;10.20;71.22
69225;DHT22;56333;51.306;17.056;2024-02-26T09:18:53;10.24;71.35
69225;DHT22;56333;51.306;17.056;2024-02-26T09:20:21;10.28;71.07
69225;DHT22;56333;51.306;17.056;2024-02-26T09:21:50;10.34;71.20